createdAt,value
2022-11-21T00:00:36.952Z,-2.42
2022-11-21T00:03:19.153Z,-2.35
2022-11-21T00:06:11.787Z,-2.28
2022-11-21T00:11:48.429Z,-2.40
2022-11-21T00:14:34.445Z,-2.38
2022-11-21T00:17:09.860Z,-2.27
2022-11-21T00:20:01.915Z,-2.24
2022-11-21T00:22:52.112Z,-2.28
2022-11-21T00:25:41.428Z,-2.32
2022-11-21T00:28:38.036Z,-2.33
2022-11-21T00:31:29.461Z,-2.36
2022-11-21T00:34:12.980Z,-2.36
2022-11-21T00:37:07.025Z,-2.40
2022-11-21T00:39:47.966Z,-2.42
2022-11-21T00:42:33.993Z,-2.50
2022-11-21T00:45:12.336Z,-2.48
2022-11-21T00:48:06.834Z,-2.45
2022-11-21T00:50:53.318Z,-2.43
2022-11-21T00:53:43.383Z,-2.43
2022-11-21T00:56:26.643Z,-2.45
2022-11-21T00:59:22.354Z,-2.52
2022-11-21T01:02:08.367Z,-2.56
2022-11-21T01:04:54.817Z,-2.42
2022-11-21T01:07:43.562Z,-2.54
2022-11-21T01:10:21.255Z,-2.62
2022-11-21T01:12:59.952Z,-2.62
2022-11-21T01:15:53.218Z,-2.66
2022-11-21T01:18:30.937Z,-2.55
2022-11-21T01:21:30.120Z,-2.52
2022-11-21T01:24:24.158Z,-2.49
2022-11-21T01:27:18.132Z,-2.48
2022-11-21T01:30:04.967Z,-2.49
2022-11-21T01:32:46.599Z,-2.46
2022-11-21T01:35:33.903Z,-2.55
2022-11-21T01:38:24.258Z,-2.53
2022-11-21T01:41:04.851Z,-2.45
2022-11-21T01:43:57.635Z,-2.60
2022-11-21T01:46:46.989Z,-2.67
2022-11-21T01:49:37.994Z,-2.58
2022-11-21T01:52:27.010Z,-2.70
2022-11-21T01:55:18.714Z,-2.84
2022-11-21T01:58:01.977Z,-2.57
2022-11-21T02:00:43.653Z,-2.51
2022-11-21T02:03:31.407Z,-2.51
2022-11-21T02:06:21.002Z,-2.60
2022-11-21T02:09:16.903Z,-2.50
2022-11-21T02:11:59.178Z,-2.70
2022-11-21T02:14:50.294Z,-2.65
2022-11-21T02:17:35.532Z,-2.80
2022-11-21T02:20:25.177Z,-2.86
2022-11-21T02:23:20.960Z,-2.89
2022-11-21T02:26:01.697Z,-2.82
2022-11-21T02:28:52.978Z,-2.85
2022-11-21T02:31:31.992Z,-2.84
2022-11-21T02:34:14.889Z,-2.86
2022-11-21T02:37:05.069Z,-2.91
2022-11-21T02:39:45.133Z,-2.80
2022-11-21T02:42:34.145Z,-2.85
2022-11-21T02:45:46.955Z,-2.80
2022-11-21T02:48:27.901Z,-2.87
2022-11-21T02:51:16.044Z,-2.92
2022-11-21T02:54:15.070Z,-2.90
2022-11-21T02:57:14.006Z,-2.91
2022-11-21T02:59:49.309Z,-2.90
2022-11-21T03:02:46.338Z,-2.93
2022-11-21T03:05:35.362Z,-2.79
2022-11-21T03:08:15.949Z,-2.74
2022-11-21T03:11:05.495Z,-2.83
2022-11-21T03:13:48.445Z,-2.71
2022-11-21T03:16:52.544Z,-2.66
2022-11-21T03:19:30.832Z,-2.49
2022-11-21T03:22:13.378Z,-2.46
2022-11-21T03:24:57.122Z,-2.44
2022-11-21T03:27:39.725Z,-2.46
2022-11-21T03:30:19.790Z,-2.35
2022-11-21T03:33:03.832Z,-2.28
2022-11-21T03:35:50.661Z,-2.41
2022-11-21T03:38:46.013Z,-2.32
2022-11-21T03:41:29.810Z,-2.11
2022-11-21T03:44:15.024Z,-2.08
2022-11-21T03:47:04.947Z,-2.13
2022-11-21T03:49:54.544Z,-2.17
2022-11-21T03:52:33.614Z,-2.25
2022-11-21T03:55:14.212Z,-2.19
2022-11-21T03:57:55.989Z,-2.17
2022-11-21T04:00:50.335Z,-2.16
2022-11-21T04:03:36.762Z,-2.28
2022-11-21T04:06:24.136Z,-2.33
2022-11-21T04:09:02.649Z,-2.24
2022-11-21T04:11:48.672Z,-2.30
2022-11-21T04:14:49.024Z,-2.41
2022-11-21T04:17:29.991Z,-2.35
2022-11-21T04:20:15.009Z,-2.34
2022-11-21T04:23:03.264Z,-2.43
2022-11-21T04:25:47.427Z,-2.37
2022-11-21T04:28:35.070Z,-2.31
2022-11-21T04:31:18.587Z,-2.32
2022-11-21T04:33:56.465Z,-2.32
2022-11-21T04:36:42.191Z,-2.35
2022-11-21T04:39:28.016Z,-2.41
2022-11-21T04:42:09.747Z,-2.40
2022-11-21T04:45:00.718Z,-2.38
2022-11-21T04:47:54.758Z,-2.40
2022-11-21T04:50:48.116Z,-2.21
2022-11-21T04:53:26.009Z,-2.31
2022-11-21T04:55:58.494Z,-2.27
2022-11-21T04:58:33.759Z,-2.42
2022-11-21T05:01:17.343Z,-2.33
2022-11-21T05:04:07.016Z,-2.29
2022-11-21T05:06:53.364Z,-2.37
2022-11-21T05:09:37.539Z,-2.57
2022-11-21T05:12:39.837Z,-2.62
2022-11-21T05:15:32.161Z,-2.45
2022-11-21T05:18:20.109Z,-2.51
2022-11-21T05:21:03.092Z,-2.44
2022-11-21T05:23:35.888Z,-2.40
2022-11-21T05:26:14.402Z,-2.37
2022-11-21T05:28:55.942Z,-2.52
2022-11-21T05:31:33.985Z,-2.48
2022-11-21T05:34:21.989Z,-2.46
2022-11-21T05:37:14.534Z,-2.55
2022-11-21T05:40:10.464Z,-2.37
2022-11-21T05:43:14.851Z,-2.48
2022-11-21T05:46:04.533Z,-2.51
2022-11-21T05:48:50.243Z,-2.52
2022-11-21T05:51:34.192Z,-2.53
2022-11-21T05:54:27.686Z,-2.53
2022-11-21T05:57:11.760Z,-2.49
2022-11-21T05:59:53.319Z,-2.43
2022-11-21T06:02:55.487Z,-2.53
2022-11-21T06:05:39.749Z,-2.34
2022-11-21T06:08:29.150Z,-2.40
2022-11-21T06:11:17.817Z,-2.31
2022-11-21T06:13:58.908Z,-2.41
2022-11-21T06:16:42.406Z,-2.33
2022-11-21T06:19:26.892Z,-2.05
2022-11-21T06:22:11.808Z,-2.35
2022-11-21T06:24:53.158Z,-2.23
2022-11-21T06:27:31.969Z,-2.08
2022-11-21T06:30:10.107Z,-2.11
2022-11-21T06:32:50.822Z,-2.08
2022-11-21T06:35:28.078Z,-1.94
2022-11-21T06:37:58.554Z,-2.00
2022-11-21T06:40:32.942Z,-2.12
2022-11-21T06:43:13.758Z,-2.21
2022-11-21T06:45:59.726Z,-2.17
2022-11-21T06:48:40.959Z,-2.08
2022-11-21T06:51:25.217Z,-2.03
2022-11-21T06:54:06.276Z,-1.97
2022-11-21T06:56:58.501Z,-2.02
2022-11-21T06:59:41.620Z,-2.20
2022-11-21T07:02:25.623Z,-2.19
2022-11-21T07:05:09.438Z,-2.08
2022-11-21T07:07:47.633Z,-2.25
2022-11-21T07:10:29.950Z,-2.24
2022-11-21T07:13:23.238Z,-2.16
2022-11-21T07:16:17.268Z,-2.07
2022-11-21T07:19:03.452Z,-1.98
2022-11-21T07:21:41.650Z,-1.98
2022-11-21T07:24:23.874Z,-1.67
2022-11-21T07:27:16.902Z,-1.58
2022-11-21T07:30:05.797Z,-1.49
2022-11-21T07:32:52.696Z,-1.48
2022-11-21T07:35:34.786Z,-1.31
2022-11-21T07:38:17.779Z,-1.20
2022-11-21T07:41:07.522Z,-1.33
2022-11-21T07:43:45.068Z,-1.20
2022-11-21T07:46:30.457Z,-1.37
2022-11-21T07:49:07.755Z,-1.33
2022-11-21T07:51:42.870Z,-1.22
2022-11-21T07:54:21.934Z,-1.11
2022-11-21T07:57:21.163Z,-1.35
2022-11-21T07:59:53.883Z,-1.24
2022-11-21T08:02:59.930Z,-1.21
2022-11-21T08:05:39.087Z,-1.20
2022-11-21T08:08:20.893Z,-1.14
2022-11-21T08:11:11.121Z,-1.06
2022-11-21T08:13:53.231Z,-1.00
2022-11-21T08:16:29.018Z,-0.99
2022-11-21T08:19:39.620Z,-1.06
2022-11-21T08:22:17.927Z,-0.89
2022-11-21T08:25:04.809Z,-0.79
2022-11-21T08:27:42.780Z,-0.76
2022-11-21T08:30:31.471Z,-0.78
2022-11-21T08:33:10.002Z,-0.68
2022-11-21T08:35:53.640Z,-0.62
2022-11-21T08:38:45.275Z,-0.73
2022-11-21T08:41:47.948Z,-0.47
2022-11-21T08:44:31.921Z,-0.22
2022-11-21T08:47:16.303Z,-0.13
2022-11-21T08:50:01.968Z,-0.11
2022-11-21T08:52:47.893Z,0.07
2022-11-21T08:55:31.348Z,0.21
2022-11-21T08:58:19.285Z,0.34
2022-11-21T09:01:00.713Z,0.35
2022-11-21T09:06:33.915Z,0.52
2022-11-21T09:09:12.143Z,0.41
2022-11-21T09:12:01.897Z,0.13
2022-11-21T09:14:58.178Z,0.26
2022-11-21T09:17:54.438Z,0.15
2022-11-21T09:20:41.178Z,0.24
2022-11-21T09:23:23.944Z,0.34
2022-11-21T09:26:07.655Z,0.57
2022-11-21T09:28:59.522Z,0.55
2022-11-21T09:31:59.996Z,0.45
2022-11-21T09:34:49.787Z,0.54
2022-11-21T09:37:35.808Z,0.57
2022-11-21T09:40:47.200Z,0.76
2022-11-21T09:44:07.225Z,0.84
2022-11-21T09:46:56.266Z,1.08
2022-11-21T09:49:47.051Z,1.28
2022-11-21T09:52:30.125Z,0.95
2022-11-21T09:55:31.957Z,1.09
2022-11-21T09:58:34.100Z,1.24
2022-11-21T10:01:25.005Z,1.41
2022-11-21T10:04:13.592Z,1.61
2022-11-21T10:07:02.882Z,1.73
2022-11-21T10:10:04.283Z,1.76
2022-11-21T10:12:47.511Z,1.89
2022-11-21T10:15:40.753Z,2.04
2022-11-21T10:18:29.746Z,2.09
2022-11-21T10:21:06.031Z,2.30
2022-11-21T10:24:00.724Z,2.42
2022-11-21T10:26:58.765Z,2.56
2022-11-21T10:29:55.519Z,2.59
2022-11-21T10:32:38.308Z,2.77
2022-11-21T10:35:25.969Z,2.94
2022-11-21T10:38:14.202Z,3.01
2022-11-21T10:41:27.525Z,3.03
2022-11-21T10:44:30.538Z,3.28
2022-11-21T10:47:14.848Z,3.38
2022-11-21T10:49:56.949Z,3.46
2022-11-21T10:52:42.712Z,3.52
2022-11-21T10:55:22.038Z,3.67
2022-11-21T10:58:00.161Z,3.81
2022-11-21T11:00:38.322Z,3.82
2022-11-21T11:03:19.460Z,4.07
2022-11-21T11:06:13.929Z,4.25
2022-11-21T11:09:07.130Z,4.29
2022-11-21T11:11:55.893Z,4.30
2022-11-21T11:14:43.579Z,4.40
2022-11-21T11:17:32.845Z,4.38
2022-11-21T11:20:42.048Z,4.51
2022-11-21T11:23:27.154Z,4.62
2022-11-21T11:26:18.425Z,4.69
2022-11-21T11:29:16.848Z,4.68
2022-11-21T11:32:28.680Z,4.84
2022-11-21T11:35:29.396Z,4.86
2022-11-21T11:38:21.452Z,4.96
2022-11-21T11:41:12.006Z,4.91
2022-11-21T11:44:19.862Z,4.87
2022-11-21T11:47:34.132Z,4.97
2022-11-21T11:50:31.452Z,4.89
2022-11-21T11:53:30.542Z,5.02
2022-11-21T11:56:44.995Z,5.00
2022-11-21T11:59:43.219Z,5.08
2022-11-21T12:02:45.525Z,5.23
2022-11-21T12:05:32.219Z,5.00
2022-11-21T12:08:49.739Z,5.03
2022-11-21T12:12:04.471Z,5.04
2022-11-21T12:15:31.000Z,5.33
2022-11-21T12:18:38.329Z,5.61
2022-11-21T12:21:39.036Z,5.58
2022-11-21T12:24:24.933Z,5.58
2022-11-21T12:27:29.976Z,5.56
2022-11-21T12:31:10.727Z,5.54
2022-11-21T12:34:28.651Z,5.74
2022-11-21T12:37:33.394Z,5.78
2022-11-21T12:40:59.165Z,5.72
2022-11-21T12:44:14.437Z,5.71
2022-11-21T12:47:09.867Z,5.78
2022-11-21T12:50:11.606Z,5.77
2022-11-21T12:53:30.650Z,5.82
2022-11-21T12:56:29.042Z,5.87
2022-11-21T12:59:09.892Z,5.81
2022-11-21T13:02:24.651Z,5.80
2022-11-21T13:05:16.280Z,5.85
2022-11-21T13:07:57.406Z,5.94
2022-11-21T13:10:35.212Z,6.09
2022-11-21T13:13:32.122Z,6.34
2022-11-21T13:16:39.863Z,6.33
2022-11-21T13:19:27.979Z,6.46
2022-11-21T13:22:22.611Z,6.64
2022-11-21T13:25:13.057Z,6.87
2022-11-21T13:27:51.917Z,6.77
2022-11-21T13:30:27.180Z,6.65
2022-11-21T13:33:02.058Z,6.59
2022-11-21T13:35:58.017Z,6.44
2022-11-21T13:38:53.510Z,6.39
2022-11-21T13:42:21.216Z,6.45
2022-11-21T13:44:54.551Z,6.25
2022-11-21T13:48:16.145Z,6.36
2022-11-21T13:51:28.603Z,6.21
2022-11-21T13:54:35.887Z,6.38
2022-11-21T13:57:25.333Z,6.42
2022-11-21T14:00:11.578Z,6.36
2022-11-21T14:03:35.983Z,6.30
2022-11-21T14:06:20.551Z,6.14
2022-11-21T14:09:40.812Z,5.96
2022-11-21T14:12:44.618Z,5.87
2022-11-21T14:15:25.194Z,5.70
2022-11-21T14:18:01.235Z,5.59
2022-11-21T14:20:44.967Z,5.13
2022-11-21T14:23:28.989Z,5.07
2022-11-21T14:26:20.042Z,5.08
2022-11-21T14:28:55.075Z,5.02
2022-11-21T14:31:48.890Z,4.99
2022-11-21T14:34:30.696Z,4.84
2022-11-21T14:37:15.699Z,4.77
2022-11-21T14:39:45.743Z,4.73
2022-11-21T14:42:34.606Z,4.79
2022-11-21T14:45:36.536Z,4.76
2022-11-21T14:48:16.135Z,4.67
2022-11-21T14:50:57.383Z,4.49
2022-11-21T14:56:41.051Z,4.27
2022-11-21T14:59:43.703Z,4.22
2022-11-21T15:02:24.458Z,4.18
2022-11-21T15:05:29.247Z,4.03
2022-11-21T15:11:52.090Z,3.90
2022-11-21T15:14:43.448Z,3.74
2022-11-21T15:17:25.215Z,3.68
2022-11-21T15:20:34.056Z,3.70
2022-11-21T15:23:14.631Z,3.60
2022-11-21T15:26:00.901Z,3.63
2022-11-21T15:28:54.052Z,3.54
2022-11-21T15:31:35.125Z,3.49
2022-11-21T15:34:34.787Z,3.47
2022-11-21T15:37:28.230Z,3.45
2022-11-21T15:40:29.104Z,3.47
2022-11-21T15:43:06.178Z,3.46
2022-11-21T15:45:48.953Z,3.44
2022-11-21T15:48:24.016Z,3.35
2022-11-21T15:51:04.654Z,3.36
2022-11-21T15:53:52.978Z,3.32
2022-11-21T15:56:40.471Z,3.22
2022-11-21T15:59:25.108Z,3.20
2022-11-21T16:02:16.413Z,3.18
2022-11-21T16:05:10.255Z,3.22
2022-11-21T16:07:53.481Z,3.23
2022-11-21T16:10:28.585Z,3.15
2022-11-21T16:13:14.191Z,3.01
2022-11-21T16:16:00.941Z,3.00
2022-11-21T16:18:33.238Z,2.99
2022-11-21T16:21:22.946Z,2.90
2022-11-21T16:24:02.588Z,2.86
2022-11-21T16:26:40.871Z,2.84
2022-11-21T16:29:25.055Z,2.88
2022-11-21T16:32:09.555Z,2.93
2022-11-21T16:34:50.199Z,2.91
2022-11-21T16:37:47.672Z,2.74
2022-11-21T16:40:30.987Z,2.75
2022-11-21T16:43:30.683Z,2.65
2022-11-21T16:46:20.630Z,2.61
2022-11-21T16:49:25.307Z,2.58
2022-11-21T16:52:18.342Z,2.53
2022-11-21T16:55:03.486Z,2.63
2022-11-21T16:57:43.737Z,2.64
2022-11-21T17:00:24.916Z,2.55
2022-11-21T17:03:03.045Z,2.49
2022-11-21T17:05:47.369Z,2.38
2022-11-21T17:08:25.665Z,2.29
2022-11-21T17:11:14.137Z,2.11
2022-11-21T17:14:02.128Z,1.95
2022-11-21T17:16:43.631Z,2.11
2022-11-21T17:19:22.321Z,2.06
2022-11-21T17:22:03.172Z,1.99
2022-11-21T17:24:52.488Z,1.88
2022-11-21T17:27:30.273Z,1.77
2022-11-21T17:30:13.941Z,1.70
2022-11-21T17:33:02.962Z,1.55
2022-11-21T17:35:44.103Z,1.45
2022-11-21T17:38:21.879Z,1.37
2022-11-21T17:41:22.045Z,1.28
2022-11-21T17:44:11.057Z,1.18
2022-11-21T17:46:49.824Z,1.18
2022-11-21T17:49:24.977Z,1.04
2022-11-21T17:52:05.125Z,1.04
2022-11-21T17:54:52.901Z,0.94
2022-11-21T17:57:27.961Z,0.84
2022-11-21T18:00:13.945Z,0.78
2022-11-21T18:03:02.068Z,0.76
2022-11-21T18:05:51.666Z,0.74
2022-11-21T18:08:40.668Z,0.64
2022-11-21T18:11:24.794Z,0.58
2022-11-21T18:14:05.768Z,0.55
2022-11-21T18:16:53.539Z,0.65
2022-11-21T18:19:43.775Z,0.79
2022-11-21T18:22:29.447Z,0.79
2022-11-21T18:25:15.330Z,0.96
2022-11-21T18:28:04.617Z,1.23
2022-11-21T18:30:57.047Z,1.40
2022-11-21T18:33:36.067Z,1.65
2022-11-21T18:36:22.568Z,1.81
2022-11-21T18:39:05.970Z,1.84
2022-11-21T18:41:55.388Z,1.88
2022-11-21T18:44:41.333Z,2.05
2022-11-21T18:47:49.731Z,2.11
2022-11-21T18:50:36.934Z,2.20
2022-11-21T18:53:17.674Z,2.20
2022-11-21T18:56:09.973Z,2.20
2022-11-21T18:58:54.225Z,2.29
2022-11-21T19:01:46.953Z,2.43
2022-11-21T19:04:34.990Z,2.38
2022-11-21T19:07:31.827Z,2.52
2022-11-21T19:10:41.221Z,2.59
2022-11-21T19:13:29.999Z,2.61
2022-11-21T19:16:17.502Z,2.64
2022-11-21T19:22:11.946Z,2.65
2022-11-21T19:24:52.320Z,2.71
2022-11-21T19:27:33.160Z,2.68
2022-11-21T19:30:38.881Z,2.79
2022-11-21T19:33:20.933Z,2.75
2022-11-21T19:36:05.293Z,2.77
2022-11-21T19:38:50.917Z,2.73
2022-11-21T19:41:35.980Z,2.68
2022-11-21T19:44:25.436Z,2.72
2022-11-21T19:47:13.113Z,2.80
2022-11-21T19:49:56.237Z,2.78
2022-11-21T19:52:35.065Z,2.82
2022-11-21T19:55:26.372Z,2.86
2022-11-21T19:58:12.719Z,2.94
2022-11-21T20:01:00.925Z,2.87
2022-11-21T20:03:45.879Z,2.79
2022-11-21T20:06:31.947Z,2.85
2022-11-21T20:09:19.377Z,2.89
2022-11-21T20:12:04.046Z,2.90
2022-11-21T20:14:56.575Z,2.94
2022-11-21T20:17:39.967Z,2.87
2022-11-21T20:20:19.980Z,2.91
2022-11-21T20:23:05.549Z,2.87
2022-11-21T20:25:55.833Z,2.93
2022-11-21T20:28:48.072Z,2.95
2022-11-21T20:31:37.341Z,2.96
2022-11-21T20:34:23.962Z,3.05
2022-11-21T20:37:14.018Z,3.08
2022-11-21T20:39:57.262Z,3.05
2022-11-21T20:42:38.989Z,3.05
2022-11-21T20:46:07.150Z,3.09
2022-11-21T20:48:35.188Z,3.10
2022-11-21T20:54:16.360Z,3.28
2022-11-21T20:57:14.553Z,3.22
2022-11-21T21:00:19.143Z,3.24
2022-11-21T21:03:10.537Z,3.21
2022-11-21T21:05:55.376Z,3.12
2022-11-21T21:08:36.944Z,3.28
2022-11-21T21:11:49.647Z,3.40
2022-11-21T21:14:40.191Z,3.17
2022-11-21T21:17:21.298Z,3.15
2022-11-21T21:20:05.916Z,3.21
2022-11-21T21:22:58.065Z,3.18
2022-11-21T21:25:45.298Z,3.13
2022-11-21T21:28:35.907Z,3.16
2022-11-21T21:31:25.782Z,3.26
2022-11-21T21:34:21.477Z,3.22
2022-11-21T21:37:07.851Z,3.18
2022-11-21T21:40:03.649Z,3.24
2022-11-21T21:42:47.034Z,3.17
2022-11-21T21:45:32.914Z,3.19
2022-11-21T21:48:22.089Z,3.21
2022-11-21T21:51:10.957Z,3.08
2022-11-21T21:53:50.945Z,3.15
2022-11-21T21:56:32.346Z,3.30
2022-11-21T21:59:10.703Z,3.28
2022-11-21T22:01:56.028Z,3.20
2022-11-21T22:04:51.820Z,3.23
2022-11-21T22:07:44.820Z,3.39
2022-11-21T22:10:25.349Z,3.47
2022-11-21T22:13:02.649Z,3.48
2022-11-21T22:15:56.656Z,3.45
2022-11-21T22:18:41.399Z,3.50
2022-11-21T22:21:32.341Z,3.37
2022-11-21T22:24:26.232Z,3.30
2022-11-21T22:27:01.907Z,3.24
2022-11-21T22:29:42.654Z,3.17
2022-11-21T22:32:20.441Z,3.21
2022-11-21T22:35:13.368Z,3.20
2022-11-21T22:38:12.164Z,3.16
2022-11-21T22:40:56.982Z,3.12
2022-11-21T22:43:45.222Z,3.13
2022-11-21T22:46:28.520Z,3.16
2022-11-21T22:49:09.667Z,3.21
2022-11-21T22:51:52.956Z,3.16
2022-11-21T22:54:38.535Z,3.10
2022-11-21T22:57:23.304Z,3.14
2022-11-21T23:00:10.941Z,3.13
2022-11-21T23:02:56.920Z,3.15
2022-11-21T23:05:37.788Z,3.15
2022-11-21T23:08:25.047Z,3.19
2022-11-21T23:11:24.541Z,3.22
2022-11-21T23:14:10.016Z,3.28
2022-11-21T23:16:49.894Z,3.29
2022-11-21T23:19:30.799Z,3.21
2022-11-21T23:22:15.014Z,3.20
2022-11-21T23:25:01.679Z,3.11
2022-11-21T23:27:38.852Z,3.21
2022-11-21T23:30:25.399Z,3.22
2022-11-21T23:33:06.607Z,3.22
2022-11-21T23:35:48.474Z,3.28
2022-11-21T23:38:28.869Z,3.22
2022-11-21T23:41:15.950Z,3.16
2022-11-21T23:44:08.990Z,3.07
2022-11-21T23:46:47.927Z,3.13
2022-11-21T23:49:35.145Z,3.16
2022-11-21T23:52:21.846Z,3.04
2022-11-21T23:55:10.401Z,3.02
2022-11-21T23:58:02.605Z,3.04
